createdAt,value
2018-03-28T00:00:07.213Z,90.58
2018-03-28T00:02:35.538Z,89.34
2018-03-28T00:05:07.406Z,89.89
2018-03-28T00:07:35.707Z,90.22
2018-03-28T00:10:06.093Z,90.28
2018-03-28T00:12:34.379Z,89.41
2018-03-28T00:15:06.526Z,89.36
2018-03-28T00:17:34.993Z,89.16
2018-03-28T00:20:06.716Z,89.42
2018-03-28T00:22:34.993Z,90.17
2018-03-28T00:25:06.192Z,89.54
2018-03-28T00:27:34.481Z,90.74
2018-03-28T00:30:05.837Z,91.48
2018-03-28T00:32:34.114Z,91.65
2018-03-28T00:35:05.449Z,92.17
2018-03-28T00:37:33.753Z,92.27
2018-03-28T00:40:08.418Z,92.30
2018-03-28T00:42:36.722Z,92.24
2018-03-28T00:45:06.296Z,92.41
2018-03-28T00:47:34.598Z,92.60
2018-03-28T00:50:08.606Z,92.66
2018-03-28T00:52:36.885Z,92.95
2018-03-28T00:55:06.490Z,92.89
2018-03-28T00:57:35.005Z,92.98
2018-03-28T01:00:06.304Z,93.14
2018-03-28T01:02:34.602Z,93.37
2018-03-28T01:05:06.110Z,93.49
2018-03-28T01:07:34.413Z,93.67
2018-03-28T01:10:05.908Z,93.68
2018-03-28T01:12:34.197Z,93.62
2018-03-28T01:15:06.343Z,93.57
2018-03-28T01:17:34.655Z,93.59
2018-03-28T01:20:06.055Z,93.63
2018-03-28T01:22:34.497Z,93.51
2018-03-28T01:25:09.526Z,93.17
2018-03-28T01:27:37.808Z,93.21
2018-03-28T01:30:06.110Z,93.22
2018-03-28T01:32:34.450Z,93.07
2018-03-28T01:35:06.085Z,93.03
2018-03-28T01:37:34.381Z,93.02
2018-03-28T01:40:09.601Z,92.94
2018-03-28T01:42:37.895Z,92.35
2018-03-28T01:45:06.222Z,91.90
2018-03-28T01:47:34.507Z,91.44
2018-03-28T01:50:14.470Z,91.19
2018-03-28T01:52:42.720Z,91.17
2018-03-28T01:55:11.072Z,91.15
2018-03-28T01:57:39.351Z,91.16
2018-03-28T02:00:07.766Z,90.86
2018-03-28T02:02:36.026Z,90.73
2018-03-28T02:05:07.275Z,90.80
2018-03-28T02:07:35.745Z,91.19
2018-03-28T02:10:07.439Z,91.02
2018-03-28T02:12:35.704Z,91.32
2018-03-28T02:15:07.324Z,92.07
2018-03-28T02:17:36.786Z,92.24
2018-03-28T02:20:06.545Z,92.56
2018-03-28T02:22:35.204Z,92.36
2018-03-28T02:25:07.166Z,92.06
2018-03-28T02:27:36.473Z,92.39
2018-03-28T02:30:07.701Z,92.48
2018-03-28T02:32:36.019Z,92.29
2018-03-28T02:35:07.633Z,91.75
2018-03-28T02:37:35.982Z,92.13
2018-03-28T02:40:07.551Z,92.61
2018-03-28T02:42:35.953Z,92.94
2018-03-28T02:45:07.477Z,92.77
2018-03-28T02:47:35.926Z,92.38
2018-03-28T02:50:08.084Z,91.78
2018-03-28T02:52:36.416Z,91.76
2018-03-28T02:55:07.609Z,91.57
2018-03-28T02:57:35.906Z,91.53
2018-03-28T03:00:08.028Z,92.15
2018-03-28T03:02:36.320Z,92.23
2018-03-28T03:05:06.419Z,92.61
2018-03-28T03:07:34.710Z,92.89
2018-03-28T03:10:06.914Z,92.97
2018-03-28T03:12:35.766Z,93.21
2018-03-28T03:15:07.744Z,92.87
2018-03-28T03:17:36.069Z,92.46
2018-03-28T03:20:07.280Z,92.95
2018-03-28T03:22:35.561Z,93.21
2018-03-28T03:25:06.857Z,92.68
2018-03-28T03:27:35.916Z,92.03
2018-03-28T03:30:07.404Z,91.98
2018-03-28T03:32:35.701Z,91.77
2018-03-28T03:35:07.817Z,91.67
2018-03-28T03:37:36.388Z,92.44
2018-03-28T03:40:06.365Z,92.81
2018-03-28T03:42:35.290Z,92.84
2018-03-28T03:45:06.988Z,93.24
2018-03-28T03:47:35.581Z,93.08
2018-03-28T03:50:07.853Z,92.35
2018-03-28T03:52:36.124Z,92.15
2018-03-28T03:55:07.879Z,92.11
2018-03-28T03:57:36.574Z,91.68
2018-03-28T04:00:06.489Z,91.74
2018-03-28T04:02:34.975Z,91.92
2018-03-28T04:05:08.885Z,91.59
2018-03-28T04:07:37.191Z,91.62
2018-03-28T04:10:06.831Z,91.70
2018-03-28T04:12:35.621Z,91.77
2018-03-28T04:15:07.697Z,91.88
2018-03-28T04:17:35.974Z,91.99
2018-03-28T04:20:07.574Z,91.89
2018-03-28T04:22:35.840Z,91.74
2018-03-28T04:25:07.089Z,91.71
2018-03-28T04:27:35.394Z,91.67
2018-03-28T04:30:06.791Z,91.52
2018-03-28T04:32:35.022Z,91.64
2018-03-28T04:35:07.201Z,91.54
2018-03-28T04:37:36.004Z,91.53
2018-03-28T04:40:07.872Z,91.33
2018-03-28T04:42:36.142Z,91.37
2018-03-28T04:45:06.296Z,91.46
2018-03-28T04:47:34.594Z,91.66
2018-03-28T04:50:06.236Z,91.48
2018-03-28T04:52:34.523Z,91.60
2018-03-28T04:55:06.014Z,91.60
2018-03-28T04:57:34.289Z,91.67
2018-03-28T05:00:06.225Z,91.91
2018-03-28T05:02:34.709Z,91.97
2018-03-28T05:05:09.708Z,91.83
2018-03-28T05:07:38.256Z,91.92
2018-03-28T05:10:06.517Z,91.85
2018-03-28T05:12:34.803Z,92.08
2018-03-28T05:15:07.780Z,92.11
2018-03-28T05:17:36.068Z,92.12
2018-03-28T05:20:08.066Z,92.02
2018-03-28T05:22:36.446Z,92.25
2018-03-28T05:25:06.436Z,92.33
2018-03-28T05:27:34.735Z,92.36
2018-03-28T05:30:06.124Z,92.61
2018-03-28T05:32:34.405Z,92.70
2018-03-28T05:35:05.699Z,92.74
2018-03-28T05:37:34.104Z,92.65
2018-03-28T05:40:07.799Z,92.58
2018-03-28T05:42:37.023Z,92.65
2018-03-28T05:45:06.516Z,92.46
2018-03-28T05:47:34.788Z,92.44
2018-03-28T05:50:09.682Z,92.37
2018-03-28T05:52:37.981Z,92.40
2018-03-28T05:55:06.322Z,92.44
2018-03-28T05:57:34.576Z,92.42
2018-03-28T06:00:06.992Z,92.34
2018-03-28T06:02:35.242Z,92.35
2018-03-28T06:05:06.828Z,92.00
2018-03-28T06:07:35.151Z,91.92
2018-03-28T06:10:06.621Z,91.79
2018-03-28T06:12:35.044Z,92.37
2018-03-28T06:15:09.633Z,92.40
2018-03-28T06:17:37.937Z,92.24
2018-03-28T06:20:06.856Z,92.34
2018-03-28T06:22:35.387Z,92.53
2018-03-28T06:25:06.383Z,92.34
2018-03-28T06:27:34.661Z,92.10
2018-03-28T06:30:06.350Z,91.88
2018-03-28T06:32:36.185Z,91.54
2018-03-28T06:35:06.373Z,91.47
2018-03-28T06:37:34.810Z,91.32
2018-03-28T06:40:06.721Z,91.06
2018-03-28T06:42:35.228Z,91.39
2018-03-28T06:45:07.236Z,91.16
2018-03-28T06:47:35.670Z,91.16
2018-03-28T06:50:07.634Z,91.11
2018-03-28T06:52:35.920Z,90.74
2018-03-28T06:55:07.134Z,90.73
2018-03-28T06:57:35.401Z,90.42
2018-03-28T07:00:06.733Z,90.32
2018-03-28T07:02:35.158Z,90.13
2018-03-28T07:05:06.584Z,89.65
2018-03-28T07:07:35.367Z,89.29
2018-03-28T07:10:07.341Z,89.39
2018-03-28T07:12:35.626Z,88.84
2018-03-28T07:15:06.540Z,89.06
2018-03-28T07:17:34.818Z,89.41
2018-03-28T07:20:06.564Z,88.91
2018-03-28T07:22:34.855Z,88.72
2018-03-28T07:25:10.052Z,88.54
2018-03-28T07:27:38.622Z,89.05
2018-03-28T07:30:06.902Z,88.92
2018-03-28T07:32:35.330Z,88.96
2018-03-28T07:35:07.400Z,88.71
2018-03-28T07:37:36.022Z,88.79
2018-03-28T07:40:07.915Z,88.93
2018-03-28T07:42:36.365Z,89.10
2018-03-28T07:45:06.464Z,88.52
2018-03-28T07:47:34.740Z,88.53
2018-03-28T07:50:07.890Z,88.09
2018-03-28T07:52:36.196Z,87.30
2018-03-28T07:55:06.570Z,87.27
2018-03-28T07:57:34.925Z,87.56
2018-03-28T08:00:06.284Z,87.76
2018-03-28T08:02:34.585Z,87.53
2018-03-28T08:05:06.550Z,86.96
2018-03-28T08:07:34.861Z,86.46
2018-03-28T08:10:08.258Z,86.65
2018-03-28T08:12:36.857Z,85.86
2018-03-28T08:15:06.977Z,85.94
2018-03-28T08:17:35.382Z,85.31
2018-03-28T08:20:07.214Z,83.82
2018-03-28T08:22:36.047Z,83.63
2018-03-28T08:25:07.565Z,82.83
2018-03-28T08:27:35.855Z,83.09
2018-03-28T08:30:08.988Z,83.60
2018-03-28T08:32:37.233Z,84.03
2018-03-28T08:35:07.197Z,83.77
2018-03-28T08:37:40.069Z,82.40
2018-03-28T08:40:08.387Z,81.97
2018-03-28T08:42:36.679Z,81.49
2018-03-28T08:45:08.227Z,81.27
2018-03-28T08:47:36.522Z,80.83
2018-03-28T08:50:06.643Z,80.04
2018-03-28T08:52:34.908Z,80.78
2018-03-28T08:55:10.105Z,79.96
2018-03-28T08:57:38.384Z,75.56
2018-03-28T09:00:08.085Z,76.21
2018-03-28T09:02:36.674Z,74.87
2018-03-28T09:05:06.517Z,74.99
2018-03-28T09:07:34.811Z,74.42
2018-03-28T09:10:10.065Z,75.33
2018-03-28T09:12:38.682Z,75.40
2018-03-28T09:15:06.961Z,76.27
2018-03-28T09:17:35.257Z,77.24
2018-03-28T09:20:07.275Z,75.78
2018-03-28T09:22:35.573Z,74.47
2018-03-28T09:25:05.650Z,74.77
2018-03-28T09:27:33.970Z,75.53
2018-03-28T09:30:05.497Z,73.72
2018-03-28T09:32:34.044Z,73.17
2018-03-28T09:35:09.135Z,74.00
2018-03-28T09:37:37.821Z,73.14
2018-03-28T09:40:06.097Z,72.03
2018-03-28T09:42:38.285Z,71.09
2018-03-28T09:45:06.792Z,70.18
2018-03-28T09:47:35.346Z,67.76
2018-03-28T09:50:06.674Z,67.80
2018-03-28T09:52:34.973Z,68.43
2018-03-28T09:55:07.001Z,68.24
2018-03-28T09:57:35.303Z,66.89
2018-03-28T10:00:08.006Z,67.47
2018-03-28T10:02:41.999Z,66.79
2018-03-28T10:05:11.114Z,65.46
2018-03-28T10:07:39.560Z,66.15
2018-03-28T10:10:07.833Z,66.18
2018-03-28T10:12:36.341Z,65.95
2018-03-28T10:15:06.364Z,65.78
2018-03-28T10:17:34.654Z,65.94
2018-03-28T10:20:05.628Z,66.08
2018-03-28T10:22:33.908Z,65.17
2018-03-28T10:25:08.950Z,65.96
2018-03-28T10:27:37.223Z,68.05
2018-03-28T10:30:05.592Z,68.34
2018-03-28T10:32:34.066Z,67.82
2018-03-28T10:35:09.588Z,66.74
2018-03-28T10:37:37.890Z,68.41
2018-03-28T10:40:06.175Z,67.34
2018-03-28T10:42:34.467Z,67.79
2018-03-28T10:45:06.733Z,67.99
2018-03-28T10:47:35.324Z,68.78
2018-03-28T10:50:07.049Z,68.07
2018-03-28T10:52:35.311Z,68.28
2018-03-28T10:55:06.733Z,68.62
2018-03-28T10:57:35.166Z,68.64
2018-03-28T11:00:07.170Z,65.34
2018-03-28T11:02:35.448Z,65.35
2018-03-28T11:05:06.642Z,64.67
2018-03-28T11:07:34.926Z,65.62
2018-03-28T11:10:06.922Z,65.19
2018-03-28T11:12:35.209Z,66.60
2018-03-28T11:15:06.605Z,67.41
2018-03-28T11:17:34.894Z,67.03
2018-03-28T11:20:07.655Z,67.39
2018-03-28T11:22:35.929Z,66.80
2018-03-28T11:25:07.628Z,65.01
2018-03-28T11:27:36.190Z,66.15
2018-03-28T11:30:06.223Z,65.92
2018-03-28T11:32:34.508Z,64.96
2018-03-28T11:35:06.802Z,66.51
2018-03-28T11:37:35.063Z,67.91
2018-03-28T11:40:06.471Z,69.50
2018-03-28T11:42:34.710Z,70.12
2018-03-28T11:45:06.961Z,70.69
2018-03-28T11:47:35.904Z,69.58
2018-03-28T11:50:05.720Z,69.28
2018-03-28T11:52:34.106Z,69.18
2018-03-28T11:55:09.365Z,68.45
2018-03-28T11:57:37.667Z,68.75
2018-03-28T12:00:05.969Z,69.04
2018-03-28T12:02:34.274Z,69.29
2018-03-28T12:05:05.708Z,69.72
2018-03-28T12:07:34.122Z,68.88
2018-03-28T12:10:07.444Z,69.71
2018-03-28T12:12:35.733Z,68.94
2018-03-28T12:15:08.886Z,67.60
2018-03-28T12:17:37.173Z,67.15
2018-03-28T12:20:06.538Z,66.41
2018-03-28T12:22:34.823Z,67.35
2018-03-28T12:25:07.985Z,67.18
2018-03-28T12:27:37.642Z,68.50
2018-03-28T12:30:05.930Z,69.71
2018-03-28T12:32:34.653Z,70.72
2018-03-28T12:35:06.507Z,72.06
2018-03-28T12:37:34.789Z,72.52
2018-03-28T12:40:07.186Z,74.69
2018-03-28T12:42:36.309Z,75.87
2018-03-28T12:45:05.809Z,75.68
2018-03-28T12:47:34.092Z,76.90
2018-03-28T12:50:06.199Z,78.13
2018-03-28T12:52:34.480Z,79.14
2018-03-28T12:55:05.894Z,78.55
2018-03-28T12:57:34.193Z,81.16
2018-03-28T13:00:09.324Z,81.55
2018-03-28T13:02:37.960Z,81.23
2018-03-28T13:05:06.231Z,80.50
2018-03-28T13:07:34.509Z,80.48
2018-03-28T13:10:06.063Z,81.59
2018-03-28T13:12:34.320Z,79.55
2018-03-28T13:15:05.932Z,79.70
2018-03-28T13:17:34.208Z,80.01
2018-03-28T13:20:09.327Z,80.96
2018-03-28T13:22:37.616Z,81.21
2018-03-28T13:25:05.892Z,81.28
2018-03-28T13:27:34.217Z,80.49
2018-03-28T13:30:09.593Z,81.69
2018-03-28T13:32:37.880Z,81.96
2018-03-28T13:35:06.436Z,80.91
2018-03-28T13:37:34.726Z,81.22
2018-03-28T13:40:06.542Z,83.33
2018-03-28T13:42:34.837Z,82.54
2018-03-28T13:45:05.813Z,82.85
2018-03-28T13:47:34.117Z,82.40
2018-03-28T13:50:09.246Z,82.41
2018-03-28T13:52:37.533Z,82.12
2018-03-28T13:55:05.881Z,82.29
2018-03-28T13:57:34.417Z,83.08
2018-03-28T14:00:07.510Z,83.14
2018-03-28T14:02:35.717Z,83.09
2018-03-28T14:05:07.246Z,84.27
2018-03-28T14:07:35.622Z,85.19
2018-03-28T14:10:07.072Z,85.19
2018-03-28T14:12:35.365Z,83.19
2018-03-28T14:15:06.906Z,84.07
2018-03-28T14:17:35.182Z,84.74
2018-03-28T14:20:06.486Z,81.43
2018-03-28T14:22:34.772Z,83.06
2018-03-28T14:25:05.905Z,83.06
2018-03-28T14:27:34.176Z,82.02
2018-03-28T14:30:05.643Z,82.79
2018-03-28T14:32:33.965Z,82.94
2018-03-28T14:35:05.511Z,82.37
2018-03-28T14:37:34.994Z,83.39
2018-03-28T14:40:06.608Z,82.17
2018-03-28T14:42:34.947Z,81.81
2018-03-28T14:45:06.338Z,82.60
2018-03-28T14:47:34.583Z,82.46
2018-03-28T14:50:06.072Z,83.62
2018-03-28T14:52:34.325Z,82.49
2018-03-28T14:55:09.475Z,82.02
2018-03-28T14:57:37.752Z,82.16
2018-03-28T15:00:06.490Z,82.70
2018-03-28T15:02:35.767Z,82.80
2018-03-28T15:05:07.159Z,82.86
2018-03-28T15:07:35.443Z,83.38
2018-03-28T15:10:07.520Z,82.39
2018-03-28T15:12:35.816Z,82.06
2018-03-28T15:15:07.425Z,81.49
2018-03-28T15:17:35.782Z,79.83
2018-03-28T15:20:07.356Z,81.11
2018-03-28T15:22:35.625Z,81.21
2018-03-28T15:25:08.015Z,81.52
2018-03-28T15:27:36.305Z,80.48
2018-03-28T15:30:07.772Z,81.49
2018-03-28T15:32:36.174Z,80.29
2018-03-28T15:35:06.110Z,82.15
2018-03-28T15:37:34.681Z,81.67
2018-03-28T15:40:06.592Z,81.75
2018-03-28T15:42:34.914Z,81.18
2018-03-28T15:45:06.236Z,80.56
2018-03-28T15:47:34.672Z,80.03
2018-03-28T15:50:06.068Z,80.59
2018-03-28T15:52:34.474Z,82.23
2018-03-28T15:55:06.385Z,81.53
2018-03-28T15:57:34.707Z,80.38
2018-03-28T16:00:06.632Z,80.46
2018-03-28T16:02:34.920Z,80.44
2018-03-28T16:05:05.983Z,82.02
2018-03-28T16:07:38.264Z,80.41
2018-03-28T16:10:06.553Z,81.55
2018-03-28T16:12:35.036Z,81.13
2018-03-28T16:15:10.534Z,81.05
2018-03-28T16:17:38.793Z,81.23
2018-03-28T16:20:07.081Z,80.82
2018-03-28T16:22:35.350Z,80.75
2018-03-28T16:25:07.513Z,80.66
2018-03-28T16:27:35.789Z,81.26
2018-03-28T16:30:08.015Z,81.38
2018-03-28T16:32:36.278Z,81.56
2018-03-28T16:35:06.100Z,81.55
2018-03-28T16:37:34.382Z,81.38
2018-03-28T16:40:05.829Z,81.40
2018-03-28T16:42:34.201Z,81.14
2018-03-28T16:45:05.934Z,81.32
2018-03-28T16:47:34.457Z,80.85
2018-03-28T16:50:07.385Z,81.43
2018-03-28T16:52:36.553Z,82.29
2018-03-28T16:55:05.997Z,82.59
2018-03-28T16:57:34.283Z,82.62
2018-03-28T17:00:05.774Z,82.22
2018-03-28T17:02:34.114Z,82.98
2018-03-28T17:05:05.602Z,82.45
2018-03-28T17:07:34.060Z,83.05
2018-03-28T17:10:09.077Z,82.53
2018-03-28T17:12:37.576Z,83.08
2018-03-28T17:15:06.976Z,82.78
2018-03-28T17:17:35.268Z,82.40
2018-03-28T17:20:06.005Z,82.54
2018-03-28T17:22:34.269Z,82.02
2018-03-28T17:25:05.699Z,81.66
2018-03-28T17:27:33.968Z,82.43
2018-03-28T17:30:09.053Z,81.80
2018-03-28T17:32:37.417Z,81.77
2018-03-28T17:35:06.620Z,81.82
2018-03-28T17:37:35.188Z,81.81
2018-03-28T17:40:07.254Z,81.59
2018-03-28T17:42:35.743Z,81.44
2018-03-28T17:45:08.345Z,81.11
2018-03-28T17:47:37.265Z,81.35
2018-03-28T17:50:07.395Z,81.33
2018-03-28T17:52:35.711Z,81.19
2018-03-28T17:55:06.121Z,81.20
2018-03-28T17:57:34.892Z,81.47
2018-03-28T18:00:07.929Z,81.21
2018-03-28T18:02:36.555Z,81.70
2018-03-28T18:05:06.619Z,81.68
2018-03-28T18:07:34.907Z,81.81
2018-03-28T18:10:06.932Z,81.78
2018-03-28T18:12:35.216Z,81.90
2018-03-28T18:15:07.236Z,81.33
2018-03-28T18:17:35.907Z,81.18
2018-03-28T18:20:07.883Z,81.04
2018-03-28T18:22:36.178Z,81.17
2018-03-28T18:25:07.994Z,80.95
2018-03-28T18:27:36.343Z,80.42
2018-03-28T18:30:08.040Z,78.51
2018-03-28T18:32:36.575Z,75.25
2018-03-28T18:35:06.392Z,72.68
2018-03-28T18:37:34.683Z,73.39
2018-03-28T18:40:08.633Z,74.61
2018-03-28T18:42:36.923Z,76.17
2018-03-28T18:45:06.612Z,76.59
2018-03-28T18:47:34.970Z,75.67
2018-03-28T18:50:06.148Z,74.35
2018-03-28T18:52:34.430Z,73.81
2018-03-28T18:55:06.438Z,74.54
2018-03-28T18:57:34.860Z,74.73
2018-03-28T19:00:06.243Z,74.13
2018-03-28T19:02:34.528Z,72.94
2018-03-28T19:05:06.084Z,73.14
2018-03-28T19:07:34.425Z,73.01
2018-03-28T19:10:07.793Z,72.83
2018-03-28T19:12:36.112Z,73.41
2018-03-28T19:15:06.849Z,72.65
2018-03-28T19:17:35.126Z,73.45
2018-03-28T19:20:06.647Z,74.71
2018-03-28T19:22:35.307Z,77.16
2018-03-28T19:25:07.120Z,77.76
2018-03-28T19:27:39.285Z,78.31
2018-03-28T19:30:07.564Z,77.49
2018-03-28T19:32:35.857Z,77.56
2018-03-28T19:35:07.272Z,77.48
2018-03-28T19:37:35.537Z,77.77
2018-03-28T19:40:06.843Z,78.15
2018-03-28T19:42:35.216Z,78.20
2018-03-28T19:45:06.701Z,77.84
2018-03-28T19:47:35.173Z,77.13
2018-03-28T19:50:06.380Z,77.03
2018-03-28T19:52:34.951Z,76.85
2018-03-28T19:55:06.274Z,75.91
2018-03-28T19:57:34.712Z,75.96
2018-03-28T20:00:06.070Z,75.50
2018-03-28T20:02:34.444Z,76.50
2018-03-28T20:05:06.157Z,77.03
2018-03-28T20:07:34.575Z,77.06
2018-03-28T20:10:09.907Z,78.31
2018-03-28T20:12:38.185Z,78.74
2018-03-28T20:15:06.734Z,78.09
2018-03-28T20:17:35.052Z,78.62
2018-03-28T20:20:07.137Z,78.36
2018-03-28T20:22:35.422Z,78.32
2018-03-28T20:25:06.448Z,79.32
2018-03-28T20:27:34.726Z,80.81
2018-03-28T20:30:06.211Z,80.13
2018-03-28T20:32:34.504Z,79.50
2018-03-28T20:35:06.104Z,78.84
2018-03-28T20:37:34.427Z,79.22
2018-03-28T20:40:05.978Z,78.47
2018-03-28T20:42:34.289Z,78.23
2018-03-28T20:45:05.824Z,77.60
2018-03-28T20:47:34.582Z,77.74
2018-03-28T20:50:06.018Z,77.61
2018-03-28T20:52:34.349Z,77.72
2018-03-28T20:55:05.863Z,78.33
2018-03-28T20:57:34.193Z,78.17
2018-03-28T21:00:05.660Z,77.83
2018-03-28T21:02:33.974Z,79.20
2018-03-28T21:05:08.614Z,79.15
2018-03-28T21:07:36.903Z,79.77
2018-03-28T21:10:08.196Z,79.06
2018-03-28T21:12:36.718Z,78.05
2018-03-28T21:15:06.854Z,77.39
2018-03-28T21:17:35.150Z,77.40
2018-03-28T21:20:06.252Z,76.93
2018-03-28T21:22:34.562Z,76.93
2018-03-28T21:25:06.198Z,75.62
2018-03-28T21:27:34.467Z,76.06
2018-03-28T21:30:08.504Z,76.37
2018-03-28T21:32:36.801Z,76.70
2018-03-28T21:35:06.705Z,75.64
2018-03-28T21:37:34.981Z,75.71
2018-03-28T21:40:06.525Z,75.92
2018-03-28T21:42:34.765Z,75.76
2018-03-28T21:45:06.357Z,78.03
2018-03-28T21:47:34.797Z,77.85
2018-03-28T21:50:06.173Z,79.01
2018-03-28T21:52:34.449Z,80.51
2018-03-28T21:55:09.436Z,81.18
2018-03-28T21:57:37.689Z,81.78
2018-03-28T22:00:07.667Z,80.62
2018-03-28T22:02:35.926Z,80.33
2018-03-28T22:05:07.374Z,80.36
2018-03-28T22:07:35.632Z,80.93
2018-03-28T22:10:07.044Z,81.77
2018-03-28T22:12:36.128Z,81.35
2018-03-28T22:15:07.720Z,81.02
2018-03-28T22:17:36.064Z,81.97
2018-03-28T22:20:07.340Z,81.76
2018-03-28T22:22:36.041Z,81.91
2018-03-28T22:25:06.003Z,82.10
2018-03-28T22:27:34.293Z,83.37
2018-03-28T22:30:05.977Z,84.02
2018-03-28T22:32:34.304Z,84.80
2018-03-28T22:35:05.749Z,84.97
2018-03-28T22:37:34.036Z,83.87
2018-03-28T22:40:05.301Z,83.25
2018-03-28T22:42:33.601Z,82.43
2018-03-28T22:45:08.349Z,81.73
2018-03-28T22:47:36.638Z,81.43
2018-03-28T22:50:06.768Z,82.78
2018-03-28T22:52:35.061Z,82.26
2018-03-28T22:55:05.949Z,83.33
2018-03-28T22:57:34.214Z,82.31
2018-03-28T23:00:08.336Z,82.50
2018-03-28T23:02:36.656Z,83.62
2018-03-28T23:05:06.450Z,83.84
2018-03-28T23:07:34.908Z,83.08
2018-03-28T23:10:06.160Z,82.53
2018-03-28T23:12:34.734Z,82.50
2018-03-28T23:15:07.004Z,82.48
2018-03-28T23:17:35.251Z,82.14
2018-03-28T23:20:06.649Z,81.89
2018-03-28T23:22:37.396Z,81.48
2018-03-28T23:25:06.240Z,81.92
2018-03-28T23:27:34.503Z,82.42
2018-03-28T23:30:06.464Z,82.08
2018-03-28T23:32:34.888Z,81.87
2018-03-28T23:35:06.826Z,81.46
2018-03-28T23:37:35.216Z,82.28
2018-03-28T23:40:06.016Z,82.72
2018-03-28T23:42:34.288Z,82.59
2018-03-28T23:45:06.198Z,82.87
2018-03-28T23:47:34.465Z,81.81
2018-03-28T23:50:06.270Z,81.95
2018-03-28T23:52:34.623Z,81.72
2018-03-28T23:55:06.651Z,82.14
2018-03-28T23:57:34.905Z,82.24
